Time;durP1;ratioP1;P1;durP2;ratioP2;P2;SDS_P1;SDS_P2;PMS_P1;PMS_P2;Temp;Humidity;BMP_temperature;BMP_pressure;BME280_temperature;BME280_humidity;BME280_pressure;Samples;Min_cycle;Max_cycle;Signal;HPM_P1;HPM_P2
2023/02/12 00:00:39;;;;;;;5.72;2.80;;;;;;;3.17;51.43;93831.44;6173032;23;20094;-79
2023/02/12 00:03:04;;;;;;;7.80;2.67;;;;;;;3.46;51.55;93835.25;6197594;23;20009;-78
2023/02/12 00:05:31;;;;;;;5.07;2.65;;;;;;;3.55;51.30;93838.41;6224565;23;20004;-78
2023/02/12 00:07:56;;;;;;;5.47;2.40;;;;;;;3.64;51.21;93826.00;6197623;23;20028;-77
2023/02/12 00:10:22;;;;;;;4.65;2.63;;;;;;;3.72;51.80;93828.34;6223193;23;20428;-79
2023/02/12 00:12:48;;;;;;;3.78;1.75;;;;;;;3.87;52.26;93830.59;6196765;23;20039;-79
2023/02/12 00:15:14;;;;;;;3.78;1.92;;;;;;;4.04;51.96;93825.69;6224707;23;20457;-78
2023/02/12 00:17:39;;;;;;;3.15;1.60;;;;;;;4.20;52.28;93814.78;6224033;23;20019;-79
2023/02/12 00:20:05;;;;;;;3.17;1.60;;;;;;;4.43;52.33;93813.34;6224408;23;20032;-79
2023/02/12 00:22:31;;;;;;;2.47;1.45;;;;;;;4.59;52.34;93816.19;6224013;23;20066;-78
2023/02/12 00:24:56;;;;;;;3.08;1.52;;;;;;;4.76;52.21;93815.59;6224050;23;20020;-78
2023/02/12 00:27:23;;;;;;;2.10;1.15;;;;;;;4.87;52.54;93814.06;6224198;23;20021;-79
2023/02/12 00:29:48;;;;;;;1.80;1.10;;;;;;;4.96;52.86;93804.97;6197386;23;20009;-79
2023/02/12 00:32:18;;;;;;;1.58;1.10;;;;;;;5.03;52.55;93807.50;6223488;23;20068;-78
2023/02/12 00:34:47;;;;;;;12.48;6.63;;;;;;;5.17;45.35;93799.28;6196789;23;20632;-79
2023/02/12 00:37:15;;;;;;;18.73;9.75;;;;;;;5.02;40.40;93806.69;6222534;23;20020;-79
2023/02/12 00:39:41;;;;;;;15.02;7.72;;;;;;;4.87;40.90;93806.28;6197241;23;20008;-79
2023/02/12 00:42:07;;;;;;;14.45;7.18;;;;;;;4.69;42.09;93802.69;6196994;23;20020;-78
2023/02/12 00:44:32;;;;;;;13.30;6.07;;;;;;;4.55;43.13;93809.84;6223921;23;20409;-79
2023/02/12 00:47:01;;;;;;;10.75;5.45;;;;;;;4.47;44.24;93812.69;6223916;23;20001;-79
2023/02/12 00:49:28;;;;;;;9.50;5.10;;;;;;;4.43;44.89;93810.75;6221533;23;20356;-77
2023/02/12 00:51:53;;;;;;;8.98;4.60;;;;;;;4.40;45.44;93808.59;6172056;23;20044;-78
2023/02/12 00:54:19;;;;;;;8.13;4.10;;;;;;;4.33;46.48;93808.66;6224540;23;20055;-78
2023/02/12 00:56:44;;;;;;;6.63;3.90;;;;;;;4.30;46.98;93802.13;6196680;23;20012;-79
2023/02/12 00:59:10;;;;;;;6.38;3.30;;;;;;;4.33;48.79;93804.28;6196844;23;20043;-79
2023/02/12 01:01:36;;;;;;;9.40;5.05;;;;;;;4.48;46.62;93808.31;6221505;23;20005;-79
2023/02/12 01:04:02;;;;;;;9.88;5.32;;;;;;;4.55;45.91;93801.28;6198177;23;20044;-79
2023/02/12 01:06:28;;;;;;;10.90;4.75;;;;;;;4.51;46.24;93806.09;6171025;23;20016;-78
2023/02/12 01:08:54;;;;;;;9.00;5.13;;;;;;;4.39;46.29;93800.03;6222981;23;20091;-78
2023/02/12 01:11:20;;;;;;;9.10;5.05;;;;;;;4.31;47.28;93801.09;6197161;23;20016;-79
2023/02/12 01:13:45;;;;;;;10.70;4.47;;;;;;;4.22;47.70;93792.03;6224959;23;20016;-79
2023/02/12 01:16:20;;;;;;;9.65;4.90;;;;;;;4.12;48.05;93792.53;6198442;23;20277;-78
2023/02/12 01:18:47;;;;;;;7.55;3.67;;;;;;;4.18;49.44;93796.03;6225235;23;20013;-78
2023/02/12 01:21:16;;;;;;;6.15;2.47;;;;;;;4.17;50.20;93802.25;6225654;23;20003;-78
2023/02/12 01:23:44;;;;;;;5.35;2.75;;;;;;;4.35;51.69;93796.28;6197948;23;20012;-79
2023/02/12 01:26:11;;;;;;;7.47;3.58;;;;;;;4.33;50.17;93799.09;6197693;23;20337;-78
2023/02/12 01:28:41;;;;;;;4.30;2.13;;;;;;;4.30;51.21;93802.13;6222737;23;20044;-77
2023/02/12 01:31:16;;;;;;;2.80;1.40;;;;;;;4.28;51.68;93805.91;6191876;23;20016;-78
2023/02/12 01:33:43;;;;;;;1.10;0.90;;;;;;;4.43;53.59;93802.97;6190100;23;20017;-78
2023/02/12 01:36:10;;;;;;;3.47;1.80;;;;;;;4.72;52.26;93797.06;6191294;23;20342;-77
2023/02/12 01:38:35;;;;;;;5.63;2.60;;;;;;;4.79;49.88;93790.00;6217648;23;20023;-78
2023/02/12 01:41:06;;;;;;;4.20;2.00;;;;;;;4.78;50.80;93795.41;6190668;23;20095;-77
2023/02/12 01:43:33;;;;;;;2.35;1.30;;;;;;;4.74;52.11;93792.44;6190927;23;20040;-77
2023/02/12 01:46:00;;;;;;;2.03;1.25;;;;;;;4.70;52.88;93786.09;6217949;23;20005;-77
2023/02/12 01:48:28;;;;;;;4.20;2.00;;;;;;;4.63;52.06;93788.00;6191546;23;20551;-77
2023/02/12 01:50:55;;;;;;;3.22;1.38;;;;;;;4.68;52.64;93795.91;6218521;23;20012;-77
2023/02/12 01:53:26;;;;;;;9.20;4.47;;;;;;;4.78;50.33;93785.03;6192866;23;20092;-78
2023/02/12 01:55:57;;;;;;;4.35;2.13;;;;;;;4.81;50.13;93782.00;6218249;23;20096;-78
2023/02/12 01:58:25;;;;;;;1.42;1.02;;;;;;;4.83;51.30;93781.78;6191023;23;20017;-77
2023/02/12 02:00:52;;;;;;;0.73;0.70;;;;;;;5.05;51.84;93780.31;6217261;23;20008;-78
2023/02/12 02:03:18;;;;;;;0.60;0.60;;;;;;;5.12;51.69;93778.41;6217829;23;20016;-78
2023/02/12 02:06:03;;;;;;;1.50;0.90;;;;;;;5.21;52.06;93787.47;6196284;23;20043;-78
2023/02/12 02:08:29;;;;;;;2.65;1.48;;;;;;;5.25;51.43;93785.22;6223433;23;20013;-78
2023/02/12 02:10:55;;;;;;;9.70;5.15;;;;;;;5.24;45.99;93782.84;6197404;23;20016;-78
2023/02/12 02:16:23;;;;;;;6.22;3.53;;;;;;;4.97;47.77;93775.41;6154975;23;20016;-78
2023/02/12 02:19:01;;;;;;;6.88;3.53;;;;;;;4.77;48.24;93768.69;6197734;23;20030;-78
2023/02/12 02:21:44;;;;;;;8.85;4.22;;;;;;;4.62;48.12;93764.88;6195559;23;20100;-79
2023/02/12 02:24:28;;;;;;;9.70;4.30;;;;;;;4.44;48.52;93763.88;6224697;23;20012;-79
2023/02/12 02:27:17;;;;;;;6.82;3.72;;;;;;;4.26;49.27;93756.91;6198087;23;20024;-78
2023/02/12 02:29:44;;;;;;;8.85;4.15;;;;;;;4.18;49.00;93770.13;6225687;23;20012;-78
2023/02/12 02:32:25;;;;;;;7.18;4.03;;;;;;;4.11;49.06;93764.22;6224632;23;20012;-79
2023/02/12 02:35:42;;;;;;;7.95;3.67;;;;;;;4.04;49.13;93760.91;6225648;23;20038;-78
2023/02/12 02:38:20;;;;;;;7.43;3.45;;;;;;;4.01;49.84;93753.53;6221229;23;20032;-78
2023/02/12 02:40:51;;;;;;;9.38;3.90;;;;;;;4.00;49.46;93759.75;6227431;23;20015;-78
2023/02/12 02:43:27;;;;;;;5.65;2.90;;;;;;;3.99;49.33;93755.59;6225728;23;20008;-78
2023/02/12 02:46:00;;;;;;;7.03;3.35;;;;;;;3.94;48.94;93748.44;6226465;23;20021;-78
2023/02/12 02:48:33;;;;;;;6.85;3.50;;;;;;;3.89;49.03;93741.28;6223737;23;20012;-78
2023/02/12 02:51:11;;;;;;;6.40;3.40;;;;;;;3.93;48.87;93742.47;6224728;23;20012;-78
2023/02/12 02:53:42;;;;;;;8.75;3.80;;;;;;;3.89;49.28;93743.09;6224587;23;20516;-78
2023/02/12 02:56:13;;;;;;;5.85;3.08;;;;;;;3.85;49.39;93740.16;6225553;23;20082;-77
2023/02/12 02:59:11;;;;;;;5.17;3.00;;;;;;;3.80;49.81;93741.78;6223680;23;20480;-78
2023/02/12 03:01:40;;;;;;;6.65;3.22;;;;;;;3.77;50.08;93742.22;6183975;23;20248;-78
2023/02/12 03:04:11;;;;;;;6.63;2.95;;;;;;;3.71;50.56;93736.09;6219198;23;20004;-78
2023/02/12 03:06:49;;;;;;;7.03;2.90;;;;;;;3.72;51.48;93729.91;6223662;23;20027;-78
2023/02/12 03:09:20;;;;;;;5.00;2.33;;;;;;;3.66;51.85;93728.97;6219881;23;20016;-78
2023/02/12 03:11:46;;;;;;;5.95;2.50;;;;;;;3.67;51.66;93729.75;6218484;23;20415;-78
2023/02/12 03:14:25;;;;;;;4.38;2.03;;;;;;;3.74;52.23;93738.28;6192772;23;20017;-77
2023/02/12 03:17:06;;;;;;;4.05;1.80;;;;;;;3.71;52.92;93736.88;6225288;23;20017;-78
2023/02/12 03:19:41;;;;;;;4.93;1.80;;;;;;;3.68;54.06;93733.94;6218771;23;20039;-78
2023/02/12 03:22:11;;;;;;;3.15;1.50;;;;;;;3.67;54.25;93732.34;6219065;23;20400;-78
2023/02/12 03:25:04;;;;;;;3.58;1.55;;;;;;;3.64;55.27;93733.56;6218685;23;20008;-78
2023/02/12 03:27:38;;;;;;;4.63;1.80;;;;;;;3.52;55.41;93720.50;6213526;23;20021;-78
2023/02/12 03:30:05;;;;;;;5.57;1.98;;;;;;;3.54;55.17;93728.09;6192610;23;20317;-77
2023/02/12 03:32:40;;;;;;;3.42;1.80;;;;;;;3.52;55.31;93741.22;6217796;23;19997;-78
2023/02/12 03:35:13;;;;;;;5.20;2.45;;;;;;;3.77;52.05;93727.47;6218628;23;20063;-78
2023/02/12 03:38:04;;;;;;;4.97;2.30;;;;;;;3.83;52.23;93737.00;6218652;23;20009;-77
2023/02/12 03:40:36;;;;;;;4.70;2.30;;;;;;;3.85;52.22;93724.63;6217588;23;20040;-78
2023/02/12 03:43:08;;;;;;;7.68;2.28;;;;;;;3.89;52.03;93736.13;6223098;23;20068;-79
2023/02/12 03:45:34;;;;;;;;;;;;;;;3.94;51.91;93733.69;6197818;23;20012;-79
2023/02/12 03:48:17;;;;;;;3.83;2.00;;;;;;;4.02;51.73;93734.41;6224571;23;19911;-79
2023/02/12 03:51:15;;;;;;;3.67;1.92;;;;;;;4.06;51.88;93740.75;6224291;23;20016;-79
2023/02/12 03:53:42;;;;;;;3.40;1.77;;;;;;;4.03;52.84;93738.56;6189902;23;20019;-78
2023/02/12 03:56:17;;;;;;;3.55;1.70;;;;;;;3.97;53.27;93743.63;6222814;23;20008;-78
2023/02/12 03:58:44;;;;;;;3.85;1.88;;;;;;;3.84;53.25;93743.75;6224641;23;20020;-79
2023/02/12 04:01:11;;;;;;;3.70;1.70;;;;;;;3.80;53.48;93742.56;6224018;23;20060;-78
2023/02/12 04:03:38;;;;;;;4.63;2.00;;;;;;;3.81;53.97;93749.34;6223913;23;20008;-79
2023/02/12 04:06:04;;;;;;;4.85;1.98;;;;;;;3.75;53.95;93755.38;6223928;23;20011;-78
2023/02/12 04:08:30;;;;;;;3.83;1.95;;;;;;;3.70;54.20;93752.66;6197748;23;20024;-78
2023/02/12 04:11:05;;;;;;;4.25;1.90;;;;;;;3.67;54.23;93753.88;6224133;23;20355;-78
2023/02/12 04:13:52;;;;;;;4.18;2.10;;;;;;;3.65;53.99;93758.47;6224716;23;20025;-79
2023/02/12 04:16:53;;;;;;;3.83;2.00;;;;;;;3.62;54.55;93756.28;6197420;23;20009;-78
2023/02/12 04:19:33;;;;;;;3.70;2.00;;;;;;;3.58;54.55;93756.91;6224115;23;20025;-78
2023/02/12 04:22:17;;;;;;;5.38;2.22;;;;;;;3.53;54.84;93755.78;6198032;23;20009;-78
2023/02/12 04:25:05;;;;;;;4.20;2.00;;;;;;;3.57;54.60;93752.75;6223461;23;20016;-78
2023/02/12 04:27:46;;;;;;;3.78;1.98;;;;;;;3.56;54.58;93757.16;6222647;23;20017;-78
2023/02/12 04:30:34;;;;;;;3.45;1.70;;;;;;;3.55;54.82;93760.72;6197176;23;20031;-77
2023/02/12 04:33:03;;;;;;;4.65;2.08;;;;;;;3.53;55.04;93755.78;6196556;23;20009;-78
2023/02/12 04:35:38;;;;;;;3.63;1.90;;;;;;;3.52;54.88;93758.56;6222775;23;20009;-78
2023/02/12 04:38:21;;;;;;;3.65;1.80;;;;;;;3.51;55.02;93754.38;6223611;23;20005;-78
2023/02/12 04:40:48;;;;;;;6.45;2.08;;;;;;;3.51;55.33;93746.59;6224047;23;20013;-78
2023/02/12 04:43:13;;;;;;;3.97;1.70;;;;;;;3.55;54.94;93751.16;6223881;23;20027;-78
2023/02/12 04:45:39;;;;;;;5.93;1.90;;;;;;;3.57;55.27;93755.34;6222719;23;20032;-78
2023/02/12 04:48:05;;;;;;;4.95;2.00;;;;;;;3.54;55.98;93754.75;6221998;23;20374;-78
2023/02/12 04:50:42;;;;;;;3.63;2.05;;;;;;;3.51;55.90;93754.38;6223375;23;20011;-78
2023/02/12 04:53:08;;;;;;;5.75;1.80;;;;;;;3.47;56.19;93751.44;6198497;23;20019;-77
2023/02/12 04:55:34;;;;;;;3.60;1.80;;;;;;;3.41;55.90;93752.28;6224411;23;20031;-78
2023/02/12 04:58:00;;;;;;;3.33;1.73;;;;;;;3.42;55.66;93755.66;6223782;23;20001;-78
2023/02/12 05:00:26;;;;;;;4.22;1.98;;;;;;;3.41;55.91;93760.03;6197370;23;20024;-78
2023/02/12 05:02:51;;;;;;;3.35;1.70;;;;;;;3.40;55.99;93762.81;6222722;23;20021;-78
2023/02/12 05:05:17;;;;;;;2.80;1.60;;;;;;;3.41;55.94;93760.03;6221942;23;20047;-78
2023/02/12 05:07:42;;;;;;;4.18;1.88;;;;;;;3.43;55.95;93757.25;6223814;23;20008;-77
2023/02/12 05:10:08;;;;;;;2.42;1.50;;;;;;;3.42;55.99;93746.06;6223626;23;20476;-78
2023/02/12 05:12:34;;;;;;;2.78;1.60;;;;;;;3.46;56.03;93754.22;6197478;23;20012;-78
2023/02/12 05:15:00;;;;;;;2.38;1.23;;;;;;;3.46;56.13;93752.41;6223855;23;20043;-78
2023/02/12 05:17:25;;;;;;;3.88;1.42;;;;;;;3.43;56.15;93758.03;6223903;23;20075;-78
2023/02/12 05:19:51;;;;;;;3.30;1.27;;;;;;;3.42;56.97;93755.66;6196722;23;20012;-77
2023/02/12 05:22:17;;;;;;;3.47;1.88;;;;;;;3.37;56.75;93748.50;6196918;23;20000;-78
2023/02/12 05:24:42;;;;;;;3.45;1.50;;;;;;;3.40;57.06;93745.53;6197154;23;20016;-78
2023/02/12 05:27:08;;;;;;;2.08;1.30;;;;;;;3.39;56.74;93737.97;6222782;23;20024;-78
2023/02/12 05:29:35;;;;;;;2.22;1.38;;;;;;;3.33;57.06;93731.81;6223269;23;20012;-77
2023/02/12 05:32:00;;;;;;;3.05;1.60;;;;;;;3.34;56.80;93738.59;6223487;23;20468;-76
2023/02/12 05:34:27;;;;;;;5.10;1.77;;;;;;;3.32;56.47;93738.00;6222362;23;20017;-78
2023/02/12 05:36:53;;;;;;;2.08;1.40;;;;;;;3.33;56.68;93739.56;6196418;23;20021;-78
2023/02/12 05:39:18;;;;;;;2.78;1.25;;;;;;;3.33;56.51;93742.16;6223280;23;20008;-78
2023/02/12 05:41:44;;;;;;;2.50;1.40;;;;;;;3.32;56.84;93740.59;6222680;23;20013;-78
2023/02/12 05:44:13;;;;;;;2.88;1.50;;;;;;;3.31;57.33;93739.81;6196024;23;20040;-78
2023/02/12 05:46:40;;;;;;;2.30;1.20;;;;;;;3.30;57.31;93743.38;6223209;23;20078;-78
2023/02/12 05:49:06;;;;;;;3.90;1.30;;;;;;;3.25;56.99;93735.47;6221539;23;20004;-78
2023/02/12 05:51:32;;;;;;;2.03;1.27;;;;;;;3.31;56.58;93739.81;6195921;23;20016;-78
2023/02/12 05:54:02;;;;;;;2.40;1.40;;;;;;;3.33;56.80;93736.97;6223088;23;20012;-78
2023/02/12 05:56:30;;;;;;;1.92;1.20;;;;;;;3.36;56.93;93731.41;6217897;23;20008;-78
2023/02/12 05:58:59;;;;;;;2.20;1.17;;;;;;;3.37;57.15;93745.91;6191690;23;19997;-77
2023/02/12 06:01:33;;;;;;;1.73;1.20;;;;;;;3.37;56.92;93743.34;6217939;23;20009;-78
2023/02/12 06:04:01;;;;;;;2.10;1.23;;;;;;;3.35;56.79;93740.16;6221176;23;20015;-78
2023/02/12 06:06:29;;;;;;;2.65;1.30;;;;;;;3.32;57.03;93725.06;6192424;23;20416;-77
2023/02/12 06:08:55;;;;;;;2.40;1.40;;;;;;;3.37;56.88;93738.16;6193356;23;20209;-78
2023/02/12 06:11:21;;;;;;;2.50;1.17;;;;;;;3.37;56.92;93742.53;6224701;23;20020;-78
2023/02/12 06:13:47;;;;;;;2.13;1.05;;;;;;;3.37;56.91;93747.72;6223504;23;19993;-78
2023/02/12 06:16:21;;;;;;;1.35;0.98;;;;;;;3.42;56.58;93740.91;6224389;23;20071;-78
2023/02/12 06:18:48;;;;;;;1.80;1.00;;;;;;;3.44;56.50;93749.25;6225011;23;20462;-78
2023/02/12 06:21:14;;;;;;;1.63;1.10;;;;;;;3.46;56.53;93742.06;6222756;23;20352;-77
2023/02/12 06:23:40;;;;;;;1.80;1.17;;;;;;;3.60;56.34;93747.94;6191454;23;20088;-77
2023/02/12 06:26:05;;;;;;;2.45;1.23;;;;;;;3.60;56.38;93741.97;6194568;23;20016;-79
2023/02/12 06:28:31;;;;;;;3.15;1.20;;;;;;;3.59;56.20;93746.34;6223111;23;20464;-79
2023/02/12 06:30:56;;;;;;;1.98;1.15;;;;;;;3.62;56.13;93751.09;6198990;23;20017;-79
2023/02/12 06:33:22;;;;;;;1.35;1.10;;;;;;;3.65;56.48;93760.25;6223237;23;20423;-79
2023/02/12 06:35:48;;;;;;;1.35;1.00;;;;;;;3.64;55.85;93762.03;6216002;23;20054;-80
2023/02/12 06:38:13;;;;;;;3.55;1.77;;;;;;;3.65;56.14;93757.69;6113130;23;20016;-80
2023/02/12 06:40:39;;;;;;;2.72;1.35;;;;;;;3.67;56.25;93760.81;6212287;23;20031;-79
2023/02/12 06:43:04;;;;;;;1.08;0.95;;;;;;;3.72;56.27;93766.19;6213797;23;20074;-79
2023/02/12 06:45:30;;;;;;;2.03;1.10;;;;;;;3.78;56.39;93770.50;6212460;23;20019;-80
2023/02/12 06:47:55;;;;;;;1.50;1.05;;;;;;;4.18;55.70;93770.13;6214444;23;20096;-80
2023/02/12 06:50:21;;;;;;;3.92;2.40;;;;;;;5.13;54.68;93769.59;6215679;23;20048;-81
2023/02/12 06:52:46;;;;;;;4.45;2.20;;;;;;;6.05;53.92;93769.22;6215380;23;20004;-81
2023/02/12 06:55:12;;;;;;;3.35;1.40;;;;;;;6.97;50.92;93766.91;6216131;23;20020;-80
2023/02/12 06:57:38;;;;;;;2.83;1.20;;;;;;;7.86;48.87;93771.56;6215918;23;20021;-80
2023/02/12 07:00:04;;;;;;;1.20;0.88;;;;;;;8.75;46.86;93773.31;6214580;23;20009;-79
2023/02/12 07:02:30;;;;;;;2.20;1.27;;;;;;;9.62;43.68;93783.91;6214605;23;20008;-80
2023/02/12 07:04:55;;;;;;;2.40;1.15;;;;;;;10.59;42.25;93774.13;6188824;23;20016;-79
2023/02/12 07:07:21;;;;;;;1.63;1.20;;;;;;;11.50;38.86;93772.88;6216942;23;20051;-81
2023/02/12 07:09:46;;;;;;;2.03;1.20;;;;;;;12.25;37.56;93778.44;6214373;23;20020;-80
2023/02/12 07:12:12;;;;;;;2.20;1.30;;;;;;;12.81;36.00;93779.34;6216144;23;20031;-81
2023/02/12 07:14:38;;;;;;;3.67;2.20;;;;;;;13.65;34.73;93779.53;6215242;23;20005;-81
2023/02/12 07:17:04;;;;;;;3.40;2.15;;;;;;;14.25;33.42;93777.50;6216660;23;20017;-81
2023/02/12 07:19:30;;;;;;;3.75;1.83;;;;;;;14.72;33.03;93778.63;6187694;23;20091;-81
2023/02/12 07:21:56;;;;;;;2.58;1.40;;;;;;;15.04;32.15;93786.97;6214301;23;20416;-81
2023/02/12 07:24:21;;;;;;;3.47;1.40;;;;;;;15.51;31.76;93783.47;6190563;23;20017;-81
2023/02/12 07:26:47;;;;;;;2.35;1.30;;;;;;;15.68;31.27;93790.13;6214697;23;20074;-81
2023/02/12 07:29:12;;;;;;;2.63;1.50;;;;;;;15.52;30.31;93790.34;6188794;23;20016;-80
2023/02/12 07:31:38;;;;;;;2.90;1.40;;;;;;;16.70;29.09;93793.81;6215862;23;20016;-79
2023/02/12 07:34:04;;;;;;;3.33;1.70;;;;;;;17.68;28.48;93803.31;6217870;23;20075;-79
2023/02/12 07:36:31;;;;;;;2.45;1.20;;;;;;;18.10;27.21;93794.19;6198112;23;20016;-79
2023/02/12 07:38:57;;;;;;;3.97;1.35;;;;;;;18.95;26.98;93796.06;6191466;23;19996;-80
2023/02/12 07:41:27;;;;;;;2.30;1.33;;;;;;;19.54;25.85;93791.25;6189997;23;20016;-81
2023/02/12 07:44:06;;;;;;;3.72;1.30;;;;;;;19.76;25.03;93802.88;6165577;23;20716;-80
2023/02/12 07:46:37;;;;;;;1.98;1.10;;;;;;;19.68;25.21;93804.41;6215743;23;20460;-79
2023/02/12 07:49:05;;;;;;;1.80;1.20;;;;;;;19.52;24.75;93798.75;6193189;23;20016;-79
2023/02/12 07:51:33;;;;;;;3.25;1.50;;;;;;;19.89;24.76;93806.47;6192787;23;19996;-80
2023/02/12 07:54:00;;;;;;;2.63;1.30;;;;;;;19.97;24.63;93803.03;6220098;23;20069;-78
2023/02/12 07:56:30;;;;;;;4.43;1.50;;;;;;;20.32;24.20;93797.72;6194678;23;20023;-79
2023/02/12 07:59:00;;;;;;;3.75;1.40;;;;;;;20.66;23.70;93806.75;6224119;23;20013;-79
2023/02/12 08:01:29;;;;;;;2.78;1.50;;;;;;;21.16;23.12;93795.47;6169222;23;20012;-79
2023/02/12 08:04:00;;;;;;;4.30;1.30;;;;;;;21.88;22.42;93798.97;6195911;23;20448;-79
2023/02/12 08:06:29;;;;;;;3.65;1.90;;;;;;;22.20;22.43;93808.16;6221624;23;20004;-79
2023/02/12 08:08:58;;;;;;;3.78;1.90;;;;;;;22.66;21.68;93802.91;6219968;23;20022;-79
2023/02/12 08:11:25;;;;;;;4.80;2.78;;;;;;;23.29;20.29;93802.69;6171029;23;20012;-79
2023/02/12 08:13:51;;;;;;;5.15;2.90;;;;;;;22.85;21.36;93807.72;6194869;23;20015;-79
2023/02/12 08:16:22;;;;;;;7.82;2.80;;;;;;;22.43;20.97;93805.94;6170957;23;20387;-78
2023/02/12 08:18:49;;;;;;;5.32;2.40;;;;;;;23.03;21.30;93803.00;6222278;23;20368;-78
2023/02/12 08:21:17;;;;;;;5.82;2.55;;;;;;;22.60;21.55;93799.66;6220398;23;20074;-79
2023/02/12 08:23:43;;;;;;;4.22;2.90;;;;;;;21.25;21.94;93801.53;6224025;23;20060;-79
2023/02/12 08:26:10;;;;;;;6.40;3.35;;;;;;;21.15;22.58;93804.56;6225152;23;20015;-79
2023/02/12 08:28:38;;;;;;;5.78;2.60;;;;;;;20.99;23.18;93805.09;6222321;23;20038;-79
2023/02/12 08:31:07;;;;;;;5.07;2.40;;;;;;;20.97;23.66;93807.28;6219731;23;20004;-79
2023/02/12 08:33:32;;;;;;;4.68;2.30;;;;;;;21.02;23.91;93802.88;6222408;23;20020;-79
2023/02/12 08:36:10;;;;;;;3.85;2.10;;;;;;;21.15;23.67;93807.22;6223111;23;20008;-79
2023/02/12 08:38:37;;;;;;;4.63;2.63;;;;;;;21.24;23.25;93815.94;6193145;23;20023;-79
2023/02/12 08:41:04;;;;;;;7.90;3.35;;;;;;;20.29;22.77;93809.00;6220454;23;20012;-79
2023/02/12 08:43:30;;;;;;;7.55;3.97;;;;;;;19.08;23.91;93820.94;6214923;23;20083;-79
2023/02/12 08:46:04;;;;;;;7.00;4.05;;;;;;;18.23;25.02;93823.56;6192328;23;20394;-78
2023/02/12 08:48:30;;;;;;;5.30;3.10;;;;;;;18.21;25.72;93831.03;6191924;23;20023;-79
2023/02/12 08:51:01;;;;;;;6.18;3.25;;;;;;;17.83;25.95;93824.19;6222595;23;20004;-79
2023/02/12 08:53:27;;;;;;;5.83;3.10;;;;;;;17.30;25.80;93822.09;6223095;23;20005;-78
2023/02/12 08:55:52;;;;;;;5.28;2.95;;;;;;;17.32;27.33;93821.81;6219269;23;20008;-78
2023/02/12 08:58:18;;;;;;;5.63;2.83;;;;;;;17.93;25.89;93825.84;6195567;23;20012;-77
2023/02/12 09:00:44;;;;;;;5.20;3.05;;;;;;;17.71;25.02;93825.75;6195003;23;20360;-78
2023/02/12 09:03:09;;;;;;;5.30;3.10;;;;;;;17.13;26.08;93824.53;6168226;23;20072;-77
2023/02/12 09:05:38;;;;;;;7.93;3.80;;;;;;;16.47;27.12;93829.13;6194373;23;20099;-79
2023/02/12 09:08:04;;;;;;;7.40;4.30;;;;;;;15.79;27.67;93833.84;6196214;23;20436;-78
2023/02/12 09:10:29;;;;;;;6.18;3.15;;;;;;;16.15;27.53;93830.69;6220509;23;20007;-78
2023/02/12 09:12:55;;;;;;;5.85;3.25;;;;;;;16.23;27.02;93836.09;6216680;23;20016;-78
2023/02/12 09:15:21;;;;;;;7.05;3.00;;;;;;;15.68;27.56;93830.50;6215253;23;20079;-78
2023/02/12 09:17:47;;;;;;;6.45;3.83;;;;;;;15.25;28.58;93837.66;6214093;23;20031;-78
2023/02/12 09:20:13;;;;;;;6.97;3.28;;;;;;;15.39;28.97;93835.91;6214733;23;20020;-77
2023/02/12 09:22:38;;;;;;;5.25;2.67;;;;;;;14.83;28.40;93837.31;6215120;23;20020;-77
2023/02/12 09:25:05;;;;;;;4.88;2.35;;;;;;;14.54;28.88;93839.91;6215118;23;20000;-77
2023/02/12 09:27:31;;;;;;;4.00;2.20;;;;;;;14.21;29.17;93842.31;6196644;23;20021;-76
2023/02/12 09:29:56;;;;;;;3.90;2.13;;;;;;;14.29;29.39;93841.69;6212401;23;20016;-77
2023/02/12 09:32:22;;;;;;;5.35;2.88;;;;;;;14.41;29.98;93845.81;6212687;23;20452;-77
2023/02/12 09:34:47;;;;;;;6.63;3.22;;;;;;;14.57;30.04;93840.19;6215654;23;20027;-78
2023/02/12 09:37:13;;;;;;;6.50;3.53;;;;;;;15.15;29.28;93839.34;6214642;23;20352;-79
2023/02/12 09:39:39;;;;;;;6.70;3.50;;;;;;;15.65;28.93;93848.75;6218242;23;20036;-79
2023/02/12 09:42:23;;;;;;;7.88;3.35;;;;;;;16.41;27.75;93837.13;6214228;23;20057;-80
2023/02/12 09:45:19;;;;;;;7.40;3.90;;;;;;;16.07;28.10;93845.31;6212909;23;20005;-80
2023/02/12 09:47:58;;;;;;;8.55;3.53;;;;;;;16.24;27.94;93855.38;6212465;23;20027;-80
2023/02/12 09:50:56;;;;;;;5.75;3.40;;;;;;;16.27;27.33;93841.56;6214083;23;20017;-80
2023/02/12 09:53:26;;;;;;;5.25;3.38;;;;;;;16.72;28.02;93849.81;6215470;23;20436;-81
2023/02/12 09:55:52;;;;;;;7.45;4.07;;;;;;;16.41;27.24;93847.72;6213743;23;20503;-81
2023/02/12 09:58:32;;;;;;;6.38;3.30;;;;;;;16.36;26.95;93850.41;6212677;23;20020;-81
2023/02/12 10:00:59;;;;;;;7.93;3.70;;;;;;;16.06;27.47;93856.19;6214223;23;20013;-81
2023/02/12 10:03:28;;;;;;;2.72;1.65;;;;;;;15.72;26.65;93857.16;6214547;23;20008;-81
2023/02/12 10:06:01;;;;;;;6.03;3.25;;;;;;;15.11;28.29;93864.72;6216032;23;20084;-80
2023/02/12 10:09:06;;;;;;;5.22;2.70;;;;;;;15.29;28.64;93865.84;6189181;23;20076;-80
2023/02/12 10:11:42;;;;;;;4.85;2.47;;;;;;;15.49;27.79;93869.28;6151723;23;20017;-80
2023/02/12 10:14:40;;;;;;;5.15;2.60;;;;;;;15.36;28.78;93870.78;6151631;23;20013;-81
2023/02/12 10:17:24;;;;;;;4.60;2.00;;;;;;;15.04;27.11;93874.81;6199535;23;20048;-81
2023/02/12 10:19:59;;;;;;;2.50;1.33;;;;;;;14.97;26.97;93875.13;6213682;23;20008;-80
2023/02/12 10:22:35;;;;;;;3.40;1.58;;;;;;;14.99;26.95;93877.47;6216184;23;20008;-80
2023/02/12 10:25:13;;;;;;;5.78;3.03;;;;;;;14.93;27.56;93879.41;6215842;23;20039;-79
2023/02/12 10:27:44;;;;;;;5.25;2.25;;;;;;;14.98;27.26;93878.56;6215276;23;20098;-81
2023/02/12 10:30:17;;;;;;;6.72;3.40;;;;;;;14.74;29.02;93887.19;6214792;23;20019;-81
2023/02/12 10:32:45;;;;;;;5.03;2.60;;;;;;;15.08;27.50;93875.03;6189696;23;20104;-81
2023/02/12 10:35:15;;;;;;;1.48;1.00;;;;;;;15.12;26.33;93873.41;6215273;23;19996;-81
2023/02/12 10:38:03;;;;;;;5.35;2.70;;;;;;;15.46;27.43;93875.13;6215855;23;20009;-82
2023/02/12 10:40:32;;;;;;;7.40;3.25;;;;;;;15.51;27.70;93875.06;6189407;23;20012;-81
2023/02/12 10:43:00;;;;;;;3.53;1.83;;;;;;;15.33;26.85;93877.41;6215763;23;20051;-81
2023/02/12 10:45:32;;;;;;;4.03;1.98;;;;;;;15.49;27.08;93870.09;6189131;23;20337;-82
2023/02/12 10:48:08;;;;;;;7.63;3.50;;;;;;;15.26;27.98;93878.78;6215368;23;20008;-81
2023/02/12 10:50:49;;;;;;;5.35;3.33;;;;;;;15.22;27.76;93875.94;6217929;23;20290;-81
2023/02/12 10:53:22;;;;;;;5.07;3.05;;;;;;;15.35;28.28;93871.81;6218614;23;20016;-82
2023/02/12 10:55:49;;;;;;;6.88;3.70;;;;;;;15.42;28.55;93869.63;6215004;23;20016;-81
2023/02/12 10:58:21;;;;;;;5.78;3.20;;;;;;;15.46;27.73;93872.50;6215371;23;20005;-77
2023/02/12 11:00:55;;;;;;;6.13;3.63;;;;;;;15.18;29.47;93872.28;6216231;23;20009;-78
2023/02/12 11:03:26;;;;;;;7.80;4.45;;;;;;;15.02;30.04;93874.31;6215235;23;20005;-78
2023/02/12 11:05:52;;;;;;;16.25;4.93;;;;;;;14.95;29.77;93872.00;6188672;23;20349;-76
2023/02/12 11:08:36;;;;;;;7.03;3.22;;;;;;;14.83;28.67;93868.94;6190266;23;20036;-78
2023/02/12 11:11:25;;;;;;;8.60;5.28;;;;;;;14.89;31.66;93869.69;6215746;23;20066;-79
2023/02/12 11:14:04;;;;;;;10.55;4.85;;;;;;;14.94;30.45;93856.44;6215252;23;20043;-79
2023/02/12 11:16:41;;;;;;;6.00;3.08;;;;;;;15.18;29.46;93865.16;6215117;23;20058;-78
2023/02/12 11:19:20;;;;;;;7.85;4.20;;;;;;;15.12;30.27;93861.00;6214883;23;20445;-78
2023/02/12 11:21:46;;;;;;;7.15;3.78;;;;;;;14.95;30.60;93863.28;6216564;23;20008;-77
2023/02/12 11:24:27;;;;;;;9.32;5.00;;;;;;;14.69;31.74;93855.63;6216783;23;20066;-80
2023/02/12 11:27:23;;;;;;;8.05;3.45;;;;;;;14.70;32.08;93867.75;6217046;23;20016;-79
2023/02/12 11:30:09;;;;;;;7.75;4.35;;;;;;;14.68;31.94;93864.59;6217804;23;20032;-78
2023/02/12 11:32:36;;;;;;;10.70;5.35;;;;;;;14.90;32.06;93860.69;6218444;23;20087;-78
2023/02/12 11:35:05;;;;;;;8.82;5.03;;;;;;;15.10;31.55;93863.13;6191592;23;20024;-78
2023/02/12 11:37:35;;;;;;;7.68;4.05;;;;;;;14.97;31.16;93863.78;6217761;23;20027;-79
2023/02/12 11:40:01;;;;;;;8.30;4.60;;;;;;;15.01;30.97;93859.53;6191714;23;20074;-79
2023/02/12 11:42:34;;;;;;;8.70;4.20;;;;;;;14.99;31.43;93853.75;6190948;23;20016;-78
2023/02/12 11:45:00;;;;;;;6.75;4.05;;;;;;;14.87;31.39;93853.34;6165562;23;20086;-78
2023/02/12 11:47:30;;;;;;;9.82;4.53;;;;;;;14.71;31.13;93844.81;6217457;23;20035;-77
2023/02/12 11:50:03;;;;;;;7.95;3.67;;;;;;;14.66;32.04;93848.28;6217817;23;20344;-78
2023/02/12 11:52:32;;;;;;;9.43;4.40;;;;;;;14.66;31.68;93848.28;6189059;23;20032;-77
2023/02/12 11:55:05;;;;;;;6.93;3.67;;;;;;;14.85;31.03;93850.22;6189448;23;19996;-79
2023/02/12 11:57:46;;;;;;;8.32;3.88;;;;;;;15.03;30.79;93859.25;6188357;23;20360;-77